sensor_id;sensor_type;location;lat;lon;timestamp;pressure;altitude;pressure_sealevel;temperature;humidity
69239;BME280;56349;51.816;-0.026;2023-11-19T00:00:18;100100.41;;;28.00;29.70
69239;BME280;56349;51.816;-0.026;2023-11-19T00:02:44;100095.85;;;27.83;29.74
69239;BME280;56349;51.816;-0.026;2023-11-19T00:05:10;100091.98;;;28.01;29.85
69239;BME280;56349;51.816;-0.026;2023-11-19T00:07:35;100096.90;;;27.74;29.86
69239;BME280;56349;51.816;-0.026;2023-11-19T00:10:01;100096.85;;;27.92;29.86
69239;BME280;56349;51.816;-0.026;2023-11-19T00:12:27;100085.33;;;27.85;29.83
69239;BME280;56349;51.816;-0.026;2023-11-19T00:14:52;100096.51;;;27.79;29.84
69239;BME280;56349;51.816;-0.026;2023-11-19T00:17:18;100093.64;;;27.76;29.82
69239;BME280;56349;51.816;-0.026;2023-11-19T00:19:43;100088.48;;;27.70;29.81
69239;BME280;56349;51.816;-0.026;2023-11-19T00:22:09;100091.98;;;27.59;29.87
69239;BME280;56349;51.816;-0.026;2023-11-19T00:24:34;100090.10;;;27.45;29.93
69239;BME280;56349;51.816;-0.026;2023-11-19T00:27:00;100086.06;;;27.28;30.00
69239;BME280;56349;51.816;-0.026;2023-11-19T00:29:25;100088.09;;;27.58;30.10
69239;BME280;56349;51.816;-0.026;2023-11-19T00:31:51;100092.82;;;27.34;30.25
69239;BME280;56349;51.816;-0.026;2023-11-19T00:34:16;100096.00;;;26.87;30.41
69239;BME280;56349;51.816;-0.026;2023-11-19T00:36:42;100089.90;;;26.81;30.64
69239;BME280;56349;51.816;-0.026;2023-11-19T00:39:07;100094.66;;;26.52;30.83
69239;BME280;56349;51.816;-0.026;2023-11-19T00:41:33;100100.45;;;26.26;31.04
69239;BME280;56349;51.816;-0.026;2023-11-19T00:43:58;100097.92;;;26.27;31.25
69239;BME280;56349;51.816;-0.026;2023-11-19T00:46:24;100100.73;;;26.24;31.45
69239;BME280;56349;51.816;-0.026;2023-11-19T00:48:49;100095.37;;;25.99;31.67
69239;BME280;56349;51.816;-0.026;2023-11-19T00:51:15;100088.81;;;25.83;31.85
69239;BME280;56349;51.816;-0.026;2023-11-19T00:53:41;100087.69;;;25.91;32.06
69239;BME280;56349;51.816;-0.026;2023-11-19T00:56:07;100091.83;;;25.79;32.18
69239;BME280;56349;51.816;-0.026;2023-11-19T00:58:31;100083.29;;;25.48;32.26
69239;BME280;56349;51.816;-0.026;2023-11-19T01:00:57;100084.61;;;25.64;32.40
69239;BME280;56349;51.816;-0.026;2023-11-19T01:03:23;100085.34;;;25.41;32.44
69239;BME280;56349;51.816;-0.026;2023-11-19T01:05:48;100094.45;;;25.43;32.39
69239;BME280;56349;51.816;-0.026;2023-11-19T01:08:14;100092.80;;;25.47;32.41
69239;BME280;56349;51.816;-0.026;2023-11-19T01:10:39;100089.14;;;25.52;32.39
69239;BME280;56349;51.816;-0.026;2023-11-19T01:13:05;100088.69;;;25.55;32.39
69239;BME280;56349;51.816;-0.026;2023-11-19T01:15:31;100084.63;;;25.59;32.34
69239;BME280;56349;51.816;-0.026;2023-11-19T01:17:56;100085.13;;;25.86;32.30
69239;BME280;56349;51.816;-0.026;2023-11-19T01:20:22;100086.44;;;25.66;32.26
69239;BME280;56349;51.816;-0.026;2023-11-19T01:22:47;100083.02;;;25.65;32.23
69239;BME280;56349;51.816;-0.026;2023-11-19T01:25:13;100092.28;;;25.82;32.21
69239;BME280;56349;51.816;-0.026;2023-11-19T01:27:39;100086.12;;;25.52;32.22
69239;BME280;56349;51.816;-0.026;2023-11-19T01:30:06;100087.46;;;25.61;32.27
69239;BME280;56349;51.816;-0.026;2023-11-19T01:32:30;100086.42;;;25.45;32.37
69239;BME280;56349;51.816;-0.026;2023-11-19T01:34:56;100082.97;;;25.27;32.46
69239;BME280;56349;51.816;-0.026;2023-11-19T01:37:21;100085.11;;;25.34;32.62
69239;BME280;56349;51.816;-0.026;2023-11-19T01:39:47;100090.27;;;25.13;32.79
69239;BME280;56349;51.816;-0.026;2023-11-19T01:42:12;100089.71;;;24.91;32.97
69239;BME280;56349;51.816;-0.026;2023-11-19T01:44:38;100089.12;;;24.74;33.14
69239;BME280;56349;51.816;-0.026;2023-11-19T01:47:04;100092.94;;;24.77;33.34
69239;BME280;56349;51.816;-0.026;2023-11-19T01:49:32;100089.07;;;24.63;33.55
69239;BME280;56349;51.816;-0.026;2023-11-19T01:51:57;100092.53;;;24.30;33.74
69239;BME280;56349;51.816;-0.026;2023-11-19T01:54:20;100097.00;;;24.50;33.81
69239;BME280;56349;51.816;-0.026;2023-11-19T01:56:46;100093.43;;;24.70;33.89
69239;BME280;56349;51.816;-0.026;2023-11-19T01:59:12;100090.37;;;24.29;33.94
69239;BME280;56349;51.816;-0.026;2023-11-19T02:01:38;100089.87;;;24.34;33.95
69239;BME280;56349;51.816;-0.026;2023-11-19T02:04:04;100089.71;;;24.41;33.88
69239;BME280;56349;51.816;-0.026;2023-11-19T02:06:28;100087.84;;;24.47;33.87
69239;BME280;56349;51.816;-0.026;2023-11-19T02:08:54;100083.51;;;24.51;33.85
69239;BME280;56349;51.816;-0.026;2023-11-19T02:11:19;100083.74;;;24.59;33.80
69239;BME280;56349;51.816;-0.026;2023-11-19T02:13:45;100088.32;;;24.68;33.73
69239;BME280;56349;51.816;-0.026;2023-11-19T02:16:10;100087.34;;;24.50;33.65
69239;BME280;56349;51.816;-0.026;2023-11-19T02:18:36;100087.26;;;24.83;33.58
69239;BME280;56349;51.816;-0.026;2023-11-19T02:21:02;100085.18;;;24.88;33.46
69239;BME280;56349;51.816;-0.026;2023-11-19T02:23:28;100078.26;;;24.63;33.38
69239;BME280;56349;51.816;-0.026;2023-11-19T02:26:00;100073.06;;;24.87;33.34
69239;BME280;56349;51.816;-0.026;2023-11-19T02:28:19;100081.92;;;24.82;33.33
69239;BME280;56349;51.816;-0.026;2023-11-19T02:30:44;100086.44;;;24.77;33.32
69239;BME280;56349;51.816;-0.026;2023-11-19T02:33:10;100086.89;;;24.69;33.34
69239;BME280;56349;51.816;-0.026;2023-11-19T02:35:35;100080.92;;;24.54;33.45
69239;BME280;56349;51.816;-0.026;2023-11-19T02:38:01;100078.14;;;24.39;33.56
69239;BME280;56349;51.816;-0.026;2023-11-19T02:40:27;100082.82;;;24.44;33.68
69239;BME280;56349;51.816;-0.026;2023-11-19T02:42:53;100075.82;;;24.24;33.84
69239;BME280;56349;51.816;-0.026;2023-11-19T02:45:17;100075.50;;;24.30;33.98
69239;BME280;56349;51.816;-0.026;2023-11-19T02:47:43;100079.68;;;24.17;34.16
69239;BME280;56349;51.816;-0.026;2023-11-19T02:50:09;100076.50;;;24.06;34.30
69239;BME280;56349;51.816;-0.026;2023-11-19T02:52:35;100075.20;;;23.99;34.43
69239;BME280;56349;51.816;-0.026;2023-11-19T02:55:00;100081.01;;;23.94;34.50
69239;BME280;56349;51.816;-0.026;2023-11-19T02:57:30;100075.93;;;23.94;34.57
69239;BME280;56349;51.816;-0.026;2023-11-19T02:59:51;100073.25;;;23.76;34.59
69239;BME280;56349;51.816;-0.026;2023-11-19T03:02:17;100078.85;;;24.04;34.54
69239;BME280;56349;51.816;-0.026;2023-11-19T03:04:42;100079.39;;;23.91;34.50
69239;BME280;56349;51.816;-0.026;2023-11-19T03:07:08;100073.21;;;24.21;34.47
69239;BME280;56349;51.816;-0.026;2023-11-19T03:09:34;100074.17;;;23.86;34.39
69239;BME280;56349;51.816;-0.026;2023-11-19T03:11:59;100072.91;;;23.98;34.28
69239;BME280;56349;51.816;-0.026;2023-11-19T03:14:25;100065.94;;;24.31;34.18
69239;BME280;56349;51.816;-0.026;2023-11-19T03:16:51;100061.80;;;23.92;34.07
69239;BME280;56349;51.816;-0.026;2023-11-19T03:19:17;100064.52;;;24.54;33.92
69239;BME280;56349;51.816;-0.026;2023-11-19T03:21:42;100064.01;;;24.57;33.82
69239;BME280;56349;51.816;-0.026;2023-11-19T03:24:08;100058.85;;;24.36;33.76
69239;BME280;56349;51.816;-0.026;2023-11-19T03:26:34;100068.77;;;24.55;33.71
69239;BME280;56349;51.816;-0.026;2023-11-19T03:28:58;100075.99;;;24.26;33.71
69239;BME280;56349;51.816;-0.026;2023-11-19T03:31:24;100082.08;;;24.17;33.75
69239;BME280;56349;51.816;-0.026;2023-11-19T03:33:50;100082.23;;;24.52;33.79
69239;BME280;56349;51.816;-0.026;2023-11-19T03:36:15;100082.45;;;24.42;33.84
69239;BME280;56349;51.816;-0.026;2023-11-19T03:38:41;100081.25;;;24.06;33.92
69239;BME280;56349;51.816;-0.026;2023-11-19T03:41:10;100065.67;;;23.93;33.97
69239;BME280;56349;51.816;-0.026;2023-11-19T03:43:33;100057.41;;;23.78;34.10
69239;BME280;56349;51.816;-0.026;2023-11-19T03:45:58;100039.01;;;23.86;34.24
69239;BME280;56349;51.816;-0.026;2023-11-19T03:48:24;100044.19;;;23.73;34.38
69239;BME280;56349;51.816;-0.026;2023-11-19T03:50:49;100044.43;;;23.61;34.55
69239;BME280;56349;51.816;-0.026;2023-11-19T03:53:15;100044.19;;;23.54;34.67
69239;BME280;56349;51.816;-0.026;2023-11-19T03:55:41;100036.31;;;23.78;34.74
69239;BME280;56349;51.816;-0.026;2023-11-19T03:58:06;100048.00;;;23.83;34.75
69239;BME280;56349;51.816;-0.026;2023-11-19T04:00:32;100045.53;;;23.93;34.69
69239;BME280;56349;51.816;-0.026;2023-11-19T04:02:58;100046.78;;;23.75;34.61
69239;BME280;56349;51.816;-0.026;2023-11-19T04:05:23;100043.80;;;23.81;34.56
69239;BME280;56349;51.816;-0.026;2023-11-19T04:07:49;100044.41;;;23.91;34.47
69239;BME280;56349;51.816;-0.026;2023-11-19T04:10:14;100048.89;;;23.99;34.36
69239;BME280;56349;51.816;-0.026;2023-11-19T04:12:40;100061.05;;;23.63;34.29
69239;BME280;56349;51.816;-0.026;2023-11-19T04:15:07;100065.23;;;23.77;34.19
69239;BME280;56349;51.816;-0.026;2023-11-19T04:17:31;100065.19;;;24.10;34.06
69239;BME280;56349;51.816;-0.026;2023-11-19T04:19:57;100071.20;;;23.97;33.94
69239;BME280;56349;51.816;-0.026;2023-11-19T04:22:22;100071.15;;;24.45;33.86
69239;BME280;56349;51.816;-0.026;2023-11-19T04:24:48;100068.18;;;24.46;33.79
69239;BME280;56349;51.816;-0.026;2023-11-19T04:27:14;100062.54;;;24.00;33.72
69239;BME280;56349;51.816;-0.026;2023-11-19T04:29:39;100062.75;;;23.93;33.72
69239;BME280;56349;51.816;-0.026;2023-11-19T04:32:06;100061.64;;;24.10;33.74
69239;BME280;56349;51.816;-0.026;2023-11-19T04:34:30;100061.21;;;23.81;33.77
69239;BME280;56349;51.816;-0.026;2023-11-19T04:36:56;100059.65;;;23.92;33.83
69239;BME280;56349;51.816;-0.026;2023-11-19T04:39:21;100055.16;;;24.01;33.93
69239;BME280;56349;51.816;-0.026;2023-11-19T04:41:47;100058.36;;;23.90;34.01
69239;BME280;56349;51.816;-0.026;2023-11-19T04:44:13;100055.02;;;23.78;34.12
69239;BME280;56349;51.816;-0.026;2023-11-19T04:46:38;100058.32;;;23.68;34.22
69239;BME280;56349;51.816;-0.026;2023-11-19T04:49:04;100058.07;;;23.56;34.33
69239;BME280;56349;51.816;-0.026;2023-11-19T04:51:30;100057.68;;;23.48;34.46
69239;BME280;56349;51.816;-0.026;2023-11-19T04:53:55;100061.83;;;23.72;34.55
69239;BME280;56349;51.816;-0.026;2023-11-19T04:56:21;100062.51;;;23.48;34.57
69239;BME280;56349;51.816;-0.026;2023-11-19T04:58:46;100055.37;;;23.79;34.54
69239;BME280;56349;51.816;-0.026;2023-11-19T05:01:14;100050.37;;;23.58;34.51
69239;BME280;56349;51.816;-0.026;2023-11-19T05:03:37;100041.80;;;23.65;34.45
69239;BME280;56349;51.816;-0.026;2023-11-19T05:06:03;100044.67;;;24.00;34.39
69239;BME280;56349;51.816;-0.026;2023-11-19T05:08:29;100047.08;;;23.82;34.31
69239;BME280;56349;51.816;-0.026;2023-11-19T05:10:54;100044.86;;;24.18;34.21
69239;BME280;56349;51.816;-0.026;2023-11-19T05:13:20;100047.44;;;23.78;34.12
69239;BME280;56349;51.816;-0.026;2023-11-19T05:15:45;100046.44;;;24.10;34.02
69239;BME280;56349;51.816;-0.026;2023-11-19T05:18:11;100039.75;;;24.21;33.89
69239;BME280;56349;51.816;-0.026;2023-11-19T05:20:36;100044.50;;;24.06;33.78
69239;BME280;56349;51.816;-0.026;2023-11-19T05:23:01;100037.02;;;24.09;33.66
69239;BME280;56349;51.816;-0.026;2023-11-19T05:25:27;100033.95;;;24.31;33.58
69239;BME280;56349;51.816;-0.026;2023-11-19T05:27:53;100036.35;;;24.05;33.52
69239;BME280;56349;51.816;-0.026;2023-11-19T05:30:18;100035.14;;;23.97;33.56
69239;BME280;56349;51.816;-0.026;2023-11-19T05:32:44;100030.33;;;23.86;33.58
69239;BME280;56349;51.816;-0.026;2023-11-19T05:35:10;100023.67;;;23.76;33.62
69239;BME280;56349;51.816;-0.026;2023-11-19T05:37:35;100028.61;;;23.86;33.66
69239;BME280;56349;51.816;-0.026;2023-11-19T05:40:01;100025.73;;;23.70;33.81
69239;BME280;56349;51.816;-0.026;2023-11-19T05:42:26;100023.87;;;23.53;33.94
69239;BME280;56349;51.816;-0.026;2023-11-19T05:44:52;100021.42;;;23.64;34.05
69239;BME280;56349;51.816;-0.026;2023-11-19T05:47:17;100023.91;;;23.46;34.23
69239;BME280;56349;51.816;-0.026;2023-11-19T05:49:43;100025.47;;;23.26;34.43
69239;BME280;56349;51.816;-0.026;2023-11-19T05:52:08;100036.48;;;23.31;34.59
69239;BME280;56349;51.816;-0.026;2023-11-19T05:54:34;100036.30;;;23.13;34.71
69239;BME280;56349;51.816;-0.026;2023-11-19T05:56:59;100033.68;;;22.97;34.90
69239;BME280;56349;51.816;-0.026;2023-11-19T05:59:25;100035.26;;;22.82;35.06
69239;BME280;56349;51.816;-0.026;2023-11-19T06:01:50;100039.15;;;22.66;35.23
69239;BME280;56349;51.816;-0.026;2023-11-19T06:04:15;100039.84;;;22.51;35.39
69239;BME280;56349;51.816;-0.026;2023-11-19T06:06:41;100049.21;;;22.63;35.54
69239;BME280;56349;51.816;-0.026;2023-11-19T06:09:06;100055.23;;;22.23;35.69
69239;BME280;56349;51.816;-0.026;2023-11-19T06:11:33;100053.96;;;22.38;35.78
69239;BME280;56349;51.816;-0.026;2023-11-19T06:13:57;100048.68;;;22.49;35.95
69239;BME280;56349;51.816;-0.026;2023-11-19T06:16:23;100051.65;;;21.91;36.05
69239;BME280;56349;51.816;-0.026;2023-11-19T06:18:48;100052.32;;;22.27;36.21
69239;BME280;56349;51.816;-0.026;2023-11-19T06:21:14;100047.60;;;22.14;36.35
69239;BME280;56349;51.816;-0.026;2023-11-19T06:23:39;100050.47;;;22.03;36.48
69239;BME280;56349;51.816;-0.026;2023-11-19T06:26:05;100053.92;;;21.96;36.50
69239;BME280;56349;51.816;-0.026;2023-11-19T06:28:31;100048.10;;;21.90;36.52
69239;BME280;56349;51.816;-0.026;2023-11-19T06:30:57;100043.00;;;21.80;36.78
69239;BME280;56349;51.816;-0.026;2023-11-19T06:33:22;100055.80;;;21.70;36.87
69239;BME280;56349;51.816;-0.026;2023-11-19T06:35:48;100055.56;;;21.82;36.90
69239;BME280;56349;51.816;-0.026;2023-11-19T06:38:13;100055.46;;;21.50;37.09
69239;BME280;56349;51.816;-0.026;2023-11-19T06:40:39;100052.02;;;21.43;37.18
69239;BME280;56349;51.816;-0.026;2023-11-19T06:43:04;100052.72;;;21.40;37.20
69239;BME280;56349;51.816;-0.026;2023-11-19T06:45:30;100058.21;;;21.55;37.27
69239;BME280;56349;51.816;-0.026;2023-11-19T06:47:55;100062.50;;;21.48;37.32
69239;BME280;56349;51.816;-0.026;2023-11-19T06:50:21;100060.23;;;21.20;37.45
69239;BME280;56349;51.816;-0.026;2023-11-19T06:52:47;100058.74;;;21.36;37.50
69239;BME280;56349;51.816;-0.026;2023-11-19T06:55:12;100051.69;;;21.34;37.48
69239;BME280;56349;51.816;-0.026;2023-11-19T06:57:38;100046.64;;;21.27;37.54
69239;BME280;56349;51.816;-0.026;2023-11-19T07:00:05;100049.49;;;21.46;37.66
69239;BME280;56349;51.816;-0.026;2023-11-19T07:02:29;100053.61;;;21.13;37.77
69239;BME280;56349;51.816;-0.026;2023-11-19T07:04:55;100055.83;;;21.06;37.97
69239;BME280;56349;51.816;-0.026;2023-11-19T07:07:20;100056.53;;;21.01;38.10
69239;BME280;56349;51.816;-0.026;2023-11-19T07:09:46;100053.20;;;21.27;38.29
69239;BME280;56349;51.816;-0.026;2023-11-19T07:12:12;100056.58;;;21.00;38.47
69239;BME280;56349;51.816;-0.026;2023-11-19T07:14:37;100054.72;;;21.01;38.68
69239;BME280;56349;51.816;-0.026;2023-11-19T07:17:03;100051.56;;;21.28;38.85
69239;BME280;56349;51.816;-0.026;2023-11-19T07:19:28;100056.04;;;21.28;39.05
69239;BME280;56349;51.816;-0.026;2023-11-19T07:21:54;100055.89;;;21.02;39.17
69239;BME280;56349;51.816;-0.026;2023-11-19T07:24:20;100054.19;;;21.33;39.34
69239;BME280;56349;51.816;-0.026;2023-11-19T07:26:47;100045.95;;;21.07;39.46
69239;BME280;56349;51.816;-0.026;2023-11-19T07:29:11;100043.70;;;21.35;39.71
69239;BME280;56349;51.816;-0.026;2023-11-19T07:31:36;100044.56;;;21.38;39.87
69239;BME280;56349;51.816;-0.026;2023-11-19T07:34:02;100040.57;;;21.15;39.96
69239;BME280;56349;51.816;-0.026;2023-11-19T07:36:28;100047.68;;;21.47;40.05
69239;BME280;56349;51.816;-0.026;2023-11-19T07:38:53;100049.63;;;21.27;39.98
69239;BME280;56349;51.816;-0.026;2023-11-19T07:41:19;100050.60;;;21.57;39.87
69239;BME280;56349;51.816;-0.026;2023-11-19T07:43:45;100054.61;;;21.11;39.90
69239;BME280;56349;51.816;-0.026;2023-11-19T07:46:11;100057.25;;;21.21;39.79
69239;BME280;56349;51.816;-0.026;2023-11-19T07:48:36;100051.99;;;21.33;39.70
69239;BME280;56349;51.816;-0.026;2023-11-19T07:51:01;100053.37;;;21.66;39.69
69239;BME280;56349;51.816;-0.026;2023-11-19T07:53:27;100046.96;;;21.47;39.83
69239;BME280;56349;51.816;-0.026;2023-11-19T07:55:53;100043.46;;;21.74;39.95
69239;BME280;56349;51.816;-0.026;2023-11-19T07:58:19;100041.69;;;21.60;39.91
69239;BME280;56349;51.816;-0.026;2023-11-19T08:00:44;100044.96;;;21.68;39.91
69239;BME280;56349;51.816;-0.026;2023-11-19T08:03:10;100045.90;;;22.03;39.81
69239;BME280;56349;51.816;-0.026;2023-11-19T08:05:38;100052.68;;;22.01;39.66
69239;BME280;56349;51.816;-0.026;2023-11-19T08:08:01;100060.07;;;22.20;39.51
69239;BME280;56349;51.816;-0.026;2023-11-19T08:10:27;100054.93;;;21.93;39.37
69239;BME280;56349;51.816;-0.026;2023-11-19T08:12:52;100058.11;;;22.16;39.18
69239;BME280;56349;51.816;-0.026;2023-11-19T08:15:18;100059.94;;;22.46;38.96
69239;BME280;56349;51.816;-0.026;2023-11-19T08:17:43;100060.37;;;22.78;38.66
69239;BME280;56349;51.816;-0.026;2023-11-19T08:20:09;100062.18;;;23.09;38.46
69239;BME280;56349;51.816;-0.026;2023-11-19T08:22:34;100071.16;;;23.37;38.20
69239;BME280;56349;51.816;-0.026;2023-11-19T08:24:59;100074.33;;;23.37;37.87
69239;BME280;56349;51.816;-0.026;2023-11-19T08:27:26;100083.07;;;23.34;37.52
69239;BME280;56349;51.816;-0.026;2023-11-19T08:29:50;100080.89;;;23.58;37.19
69239;BME280;56349;51.816;-0.026;2023-11-19T08:32:15;100084.72;;;23.63;36.80
69239;BME280;56349;51.816;-0.026;2023-11-19T08:34:41;100079.67;;;24.08;36.43
69239;BME280;56349;51.816;-0.026;2023-11-19T08:37:06;100079.04;;;24.32;36.07
69239;BME280;56349;51.816;-0.026;2023-11-19T08:39:32;100080.23;;;24.36;35.75
69239;BME280;56349;51.816;-0.026;2023-11-19T08:41:57;100074.79;;;24.40;35.42
69239;BME280;56349;51.816;-0.026;2023-11-19T08:44:23;100068.52;;;24.64;35.18
69239;BME280;56349;51.816;-0.026;2023-11-19T08:46:49;100071.73;;;24.89;34.80
69239;BME280;56349;51.816;-0.026;2023-11-19T08:49:15;100074.35;;;24.82;34.54
69239;BME280;56349;51.816;-0.026;2023-11-19T08:51:40;100070.12;;;24.83;34.19
69239;BME280;56349;51.816;-0.026;2023-11-19T08:54:07;100075.90;;;25.07;34.02
69239;BME280;56349;51.816;-0.026;2023-11-19T08:56:32;100074.40;;;25.55;33.48
69239;BME280;56349;51.816;-0.026;2023-11-19T08:58:57;100079.21;;;25.52;33.22
69239;BME280;56349;51.816;-0.026;2023-11-19T09:01:23;100074.86;;;25.16;33.19
69239;BME280;56349;51.816;-0.026;2023-11-19T09:03:48;100070.10;;;25.56;32.91
69239;BME280;56349;51.816;-0.026;2023-11-19T09:06:14;100073.11;;;25.87;32.98
69239;BME280;56349;51.816;-0.026;2023-11-19T09:08:39;100063.23;;;25.74;32.64
69239;BME280;56349;51.816;-0.026;2023-11-19T09:11:07;100064.57;;;26.04;32.50
69239;BME280;56349;51.816;-0.026;2023-11-19T09:13:30;100066.63;;;26.12;32.30
69239;BME280;56349;51.816;-0.026;2023-11-19T09:15:56;100075.66;;;25.97;31.93
69239;BME280;56349;51.816;-0.026;2023-11-19T09:18:21;100069.41;;;26.07;31.68
69239;BME280;56349;51.816;-0.026;2023-11-19T09:20:47;100070.75;;;26.39;31.29
69239;BME280;56349;51.816;-0.026;2023-11-19T09:23:37;100073.92;;;25.99;31.28
69239;BME280;56349;51.816;-0.026;2023-11-19T09:25:38;100070.22;;;26.36;31.00
69239;BME280;56349;51.816;-0.026;2023-11-19T09:28:11;100079.78;;;26.26;30.80
69239;BME280;56349;51.816;-0.026;2023-11-19T09:30:34;100086.64;;;26.40;30.64
69239;BME280;56349;51.816;-0.026;2023-11-19T09:32:55;100091.74;;;26.56;30.41
69239;BME280;56349;51.816;-0.026;2023-11-19T09:35:20;100079.70;;;26.67;30.34
69239;BME280;56349;51.816;-0.026;2023-11-19T09:37:46;100073.27;;;26.72;30.31
69239;BME280;56349;51.816;-0.026;2023-11-19T09:40:11;100069.12;;;26.77;30.30
69239;BME280;56349;51.816;-0.026;2023-11-19T09:42:43;100072.99;;;26.63;30.19
69239;BME280;56349;51.816;-0.026;2023-11-19T09:45:06;100071.53;;;26.90;30.12
69239;BME280;56349;51.816;-0.026;2023-11-19T09:47:28;100075.32;;;26.96;30.03
69239;BME280;56349;51.816;-0.026;2023-11-19T09:49:54;100076.85;;;27.01;29.92
69239;BME280;56349;51.816;-0.026;2023-11-19T09:52:20;100071.74;;;26.57;29.86
69239;BME280;56349;51.816;-0.026;2023-11-19T09:54:46;100069.33;;;26.88;29.78
69239;BME280;56349;51.816;-0.026;2023-11-19T09:57:11;100071.78;;;26.92;29.72
69239;BME280;56349;51.816;-0.026;2023-11-19T09:59:37;100071.11;;;26.68;29.60
69239;BME280;56349;51.816;-0.026;2023-11-19T10:02:02;100070.44;;;26.98;29.53
69239;BME280;56349;51.816;-0.026;2023-11-19T10:04:30;100065.88;;;27.02;29.48
69239;BME280;56349;51.816;-0.026;2023-11-19T10:06:53;100061.11;;;27.03;29.45
69239;BME280;56349;51.816;-0.026;2023-11-19T10:09:19;100057.50;;;27.05;29.36
69239;BME280;56349;51.816;-0.026;2023-11-19T10:11:45;100063.77;;;27.07;29.33
69239;BME280;56349;51.816;-0.026;2023-11-19T10:14:10;100058.09;;;26.81;29.24
69239;BME280;56349;51.816;-0.026;2023-11-19T10:16:38;100060.27;;;27.32;29.18
69239;BME280;56349;51.816;-0.026;2023-11-19T10:19:02;100065.34;;;26.85;29.05
69239;BME280;56349;51.816;-0.026;2023-11-19T10:21:27;100066.03;;;26.67;28.98
69239;BME280;56349;51.816;-0.026;2023-11-19T10:23:55;100062.28;;;27.18;28.98
69239;BME280;56349;51.816;-0.026;2023-11-19T10:26:19;100055.20;;;27.17;28.98
69239;BME280;56349;51.816;-0.026;2023-11-19T10:28:46;100053.86;;;26.93;28.91
69239;BME280;56349;51.816;-0.026;2023-11-19T10:31:10;100055.78;;;26.93;28.85
69239;BME280;56349;51.816;-0.026;2023-11-19T10:33:35;100052.56;;;27.20;28.76
69239;BME280;56349;51.816;-0.026;2023-11-19T10:36:01;100042.46;;;26.94;28.78
69239;BME280;56349;51.816;-0.026;2023-11-19T10:38:27;100043.04;;;27.20;28.76
69239;BME280;56349;51.816;-0.026;2023-11-19T10:40:54;100041.52;;;27.20;28.74
69239;BME280;56349;51.816;-0.026;2023-11-19T10:43:19;100033.20;;;26.95;28.66
69239;BME280;56349;51.816;-0.026;2023-11-19T10:45:44;100034.48;;;27.21;28.64
69239;BME280;56349;51.816;-0.026;2023-11-19T10:48:09;100030.16;;;27.21;28.62
69239;BME280;56349;51.816;-0.026;2023-11-19T10:50:36;100028.71;;;27.21;28.59
69239;BME280;56349;51.816;-0.026;2023-11-19T10:53:01;100028.17;;;26.95;28.62
69239;BME280;56349;51.816;-0.026;2023-11-19T10:55:28;100030.93;;;27.22;28.51
69239;BME280;56349;51.816;-0.026;2023-11-19T10:57:52;100031.16;;;26.95;28.53
69239;BME280;56349;51.816;-0.026;2023-11-19T11:00:19;100033.26;;;27.24;28.40
69239;BME280;56349;51.816;-0.026;2023-11-19T11:02:43;100027.53;;;27.25;28.32
69239;BME280;56349;51.816;-0.026;2023-11-19T11:05:08;100027.40;;;27.25;28.21
69239;BME280;56349;51.816;-0.026;2023-11-19T11:07:34;100027.46;;;26.97;28.23
69239;BME280;56349;51.816;-0.026;2023-11-19T11:10:00;100027.25;;;26.94;28.22
69239;BME280;56349;51.816;-0.026;2023-11-19T11:12:25;100023.63;;;27.16;28.14
69239;BME280;56349;51.816;-0.026;2023-11-19T11:14:49;100023.14;;;27.13;28.13
69239;BME280;56349;51.816;-0.026;2023-11-19T11:17:17;100026.18;;;26.81;28.13
69239;BME280;56349;51.816;-0.026;2023-11-19T11:19:42;100018.66;;;26.75;28.19
69239;BME280;56349;51.816;-0.026;2023-11-19T11:22:07;100019.99;;;26.94;28.21
69239;BME280;56349;51.816;-0.026;2023-11-19T11:24:42;100018.30;;;26.83;28.24
69239;BME280;56349;51.816;-0.026;2023-11-19T11:29:35;100006.54;;;26.69;28.47
69239;BME280;56349;51.816;-0.026;2023-11-19T11:31:54;100006.00;;;26.48;28.60
69239;BME280;56349;51.816;-0.026;2023-11-19T11:34:37;100001.72;;;26.25;28.77
69239;BME280;56349;51.816;-0.026;2023-11-19T11:36:45;100001.19;;;26.29;28.93
69239;BME280;56349;51.816;-0.026;2023-11-19T11:39:03;99992.64;;;25.56;29.10
69239;BME280;56349;51.816;-0.026;2023-11-19T11:41:29;100000.36;;;25.83;29.28
69239;BME280;56349;51.816;-0.026;2023-11-19T11:43:55;99999.76;;;25.59;29.45
69239;BME280;56349;51.816;-0.026;2023-11-19T11:48:48;99985.69;;;25.55;29.85
69239;BME280;56349;51.816;-0.026;2023-11-19T11:51:13;99980.50;;;25.18;29.97
69239;BME280;56349;51.816;-0.026;2023-11-19T11:53:38;99972.44;;;25.06;30.16
69239;BME280;56349;51.816;-0.026;2023-11-19T11:56:04;99968.91;;;25.19;30.24
69239;BME280;56349;51.816;-0.026;2023-11-19T11:58:32;99974.34;;;25.13;30.47
69239;BME280;56349;51.816;-0.026;2023-11-19T12:00:57;99972.01;;;25.12;30.53
69239;BME280;56349;51.816;-0.026;2023-11-19T12:03:22;99969.03;;;24.89;30.67
69239;BME280;56349;51.816;-0.026;2023-11-19T12:05:47;99965.86;;;25.13;30.73
69239;BME280;56349;51.816;-0.026;2023-11-19T12:08:13;99958.78;;;25.18;30.62
69239;BME280;56349;51.816;-0.026;2023-11-19T12:10:43;99960.27;;;25.01;30.60
69239;BME280;56349;51.816;-0.026;2023-11-19T12:13:08;99958.80;;;25.13;30.73
69239;BME280;56349;51.816;-0.026;2023-11-19T12:15:28;99951.26;;;25.24;30.70
69239;BME280;56349;51.816;-0.026;2023-11-19T12:17:54;99948.20;;;25.36;30.88
69239;BME280;56349;51.816;-0.026;2023-11-19T12:20:21;99953.39;;;25.43;30.80
69239;BME280;56349;51.816;-0.026;2023-11-19T12:22:45;99958.71;;;25.46;30.98
69239;BME280;56349;51.816;-0.026;2023-11-19T12:25:10;99956.95;;;25.55;30.96
69239;BME280;56349;51.816;-0.026;2023-11-19T12:27:35;99957.33;;;25.56;30.45
69239;BME280;56349;51.816;-0.026;2023-11-19T12:30:00;99957.64;;;25.60;30.63
69239;BME280;56349;51.816;-0.026;2023-11-19T12:32:26;99953.85;;;25.64;30.68
69239;BME280;56349;51.816;-0.026;2023-11-19T12:34:51;99955.66;;;25.68;30.94